createdAt,value
2022-10-28T00:00:13.133Z,1012.27
2022-10-28T00:00:34.188Z,1012.25
2022-10-28T00:00:55.248Z,1012.25
2022-10-28T00:01:16.355Z,1012.23
2022-10-28T00:01:37.490Z,1012.21
2022-10-28T00:01:58.586Z,1012.23
2022-10-28T00:02:19.713Z,1012.21
2022-10-28T00:02:40.910Z,1012.21
2022-10-28T00:03:02.194Z,1012.19
2022-10-28T00:03:23.282Z,1012.19
2022-10-28T00:03:44.334Z,1012.19
2022-10-28T00:04:05.390Z,1012.16
2022-10-28T00:04:26.509Z,1012.16
2022-10-28T00:04:47.538Z,1012.17
2022-10-28T00:05:08.578Z,1012.16
2022-10-28T00:05:29.653Z,1012.17
2022-10-28T00:05:50.835Z,1012.17
2022-10-28T00:06:11.884Z,1012.12
2022-10-28T00:06:32.937Z,1012.10
2022-10-28T00:06:53.985Z,1012.10
2022-10-28T00:07:15.030Z,1012.12
2022-10-28T00:07:36.080Z,1012.08
2022-10-28T00:07:57.135Z,1012.12
2022-10-28T00:08:18.205Z,1012.06
2022-10-28T00:08:39.249Z,1012.06
2022-10-28T00:09:00.301Z,1012.06
2022-10-28T00:09:21.364Z,1012.04
2022-10-28T00:09:42.417Z,1012.06
2022-10-28T00:10:03.466Z,1012.06
2022-10-28T00:10:24.523Z,1012.04
2022-10-28T00:10:45.580Z,1012.06
2022-10-28T00:11:06.642Z,1012.06
2022-10-28T00:11:27.807Z,1012.08
2022-10-28T00:11:48.871Z,1012.10
2022-10-28T00:12:09.921Z,1012.08
2022-10-28T00:12:30.968Z,1012.06
2022-10-28T00:12:52.019Z,1012.08
2022-10-28T00:13:13.073Z,1012.04
2022-10-28T00:13:34.122Z,1012.10
2022-10-28T00:13:55.169Z,1012.08
2022-10-28T00:14:16.220Z,1012.04
2022-10-28T00:14:37.267Z,1012.04
2022-10-28T00:14:58.318Z,1012.02
2022-10-28T00:15:19.374Z,1012.02
2022-10-28T00:15:40.438Z,1012.04
2022-10-28T00:16:01.485Z,1012.00
2022-10-28T00:16:22.541Z,1012.04
2022-10-28T00:16:43.632Z,1012.00
2022-10-28T00:17:04.681Z,1012.00
2022-10-28T00:17:25.773Z,1011.98
2022-10-28T00:17:46.797Z,1011.98
2022-10-28T00:18:07.848Z,1011.98
2022-10-28T00:18:28.894Z,1011.94
2022-10-28T00:18:49.993Z,1011.94
2022-10-28T00:19:11.040Z,1011.94
2022-10-28T00:19:32.154Z,1011.94
2022-10-28T00:19:53.218Z,1011.94
2022-10-28T00:20:14.266Z,1011.92
2022-10-28T00:20:35.330Z,1011.92
2022-10-28T00:20:56.387Z,1011.92
2022-10-28T00:21:17.423Z,1011.92
2022-10-28T00:21:38.481Z,1011.88
2022-10-28T00:21:59.660Z,1011.90
2022-10-28T00:22:20.740Z,1011.90
2022-10-28T00:22:41.790Z,1011.88
2022-10-28T00:23:02.885Z,1011.86
2022-10-28T00:23:23.943Z,1011.88
2022-10-28T00:23:45.006Z,1011.88
2022-10-28T00:24:06.038Z,1011.88
2022-10-28T00:24:27.098Z,1011.88
2022-10-28T00:24:48.137Z,1011.84
2022-10-28T00:25:09.190Z,1011.86
2022-10-28T00:25:30.243Z,1011.84
2022-10-28T00:25:51.293Z,1011.84
2022-10-28T00:26:12.341Z,1011.84
2022-10-28T00:26:33.408Z,1011.84
2022-10-28T00:26:54.452Z,1011.88
2022-10-28T00:27:15.631Z,1011.88
2022-10-28T00:27:36.673Z,1011.90
2022-10-28T00:27:57.716Z,1011.94
2022-10-28T00:28:18.780Z,1011.98
2022-10-28T00:28:39.822Z,1012.02
2022-10-28T00:29:00.894Z,1012.00
2022-10-28T00:29:21.940Z,1012.04
2022-10-28T00:29:42.980Z,1012.02
2022-10-28T00:30:04.030Z,1012.04
2022-10-28T00:30:25.134Z,1012.10
2022-10-28T00:30:46.165Z,1012.06
2022-10-28T00:31:07.222Z,1012.06
2022-10-28T00:31:28.265Z,1012.06
2022-10-28T00:31:49.324Z,1012.02
2022-10-28T00:32:10.372Z,1012.02
2022-10-28T00:32:31.587Z,1012.00
2022-10-28T00:32:52.993Z,1012.00
2022-10-28T00:33:14.312Z,1012.00
2022-10-28T00:33:35.399Z,1011.98
2022-10-28T00:33:56.478Z,1012.00
2022-10-28T00:34:17.530Z,1012.00
2022-10-28T00:34:38.582Z,1012.06
2022-10-28T00:34:59.635Z,1012.04
2022-10-28T00:35:20.702Z,1012.04
2022-10-28T00:35:41.761Z,1012.08
2022-10-28T00:36:04.317Z,1012.06
2022-10-28T00:36:25.525Z,1012.06
2022-10-28T00:36:46.613Z,1012.06
2022-10-28T00:37:07.662Z,1012.04
2022-10-28T00:37:28.706Z,1012.02
2022-10-28T00:37:49.760Z,1012.04
2022-10-28T00:38:10.808Z,1012.04
2022-10-28T00:38:31.860Z,1012.02
2022-10-28T00:38:52.913Z,1012.04
2022-10-28T00:39:13.980Z,1012.04
2022-10-28T00:39:35.041Z,1012.04
2022-10-28T00:39:56.093Z,1012.02
2022-10-28T00:40:17.156Z,1012.08
2022-10-28T00:40:38.204Z,1012.08
2022-10-28T00:40:59.256Z,1012.06
2022-10-28T00:41:20.342Z,1012.06
2022-10-28T00:41:41.393Z,1012.08
2022-10-28T00:42:02.588Z,1012.08
2022-10-28T00:42:23.647Z,1012.12
2022-10-28T00:42:44.714Z,1012.10
2022-10-28T00:43:05.756Z,1012.14
2022-10-28T00:43:47.811Z,1012.17
2022-10-28T00:44:08.854Z,1012.17
2022-10-28T00:44:29.906Z,1012.21
2022-10-28T00:44:50.996Z,1012.19
2022-10-28T00:45:12.072Z,1012.19
2022-10-28T00:45:33.141Z,1012.21
2022-10-28T00:45:54.169Z,1012.19
2022-10-28T00:46:15.239Z,1012.17
2022-10-28T00:46:36.276Z,1012.21
2022-10-28T00:46:57.348Z,1012.19
2022-10-28T00:47:18.434Z,1012.21
2022-10-28T00:47:39.488Z,1012.21
2022-10-28T00:48:00.544Z,1012.19
2022-10-28T00:48:21.594Z,1012.19
2022-10-28T00:48:42.655Z,1012.17
2022-10-28T00:49:03.711Z,1012.17
2022-10-28T00:49:24.782Z,1012.19
2022-10-28T00:49:45.821Z,1012.17
2022-10-28T00:50:06.888Z,1012.17
2022-10-28T00:50:27.948Z,1012.17
2022-10-28T00:50:48.993Z,1012.17
2022-10-28T00:51:10.064Z,1012.17
2022-10-28T00:51:31.099Z,1012.16
2022-10-28T00:51:52.150Z,1012.17
2022-10-28T00:52:13.207Z,1012.16
2022-10-28T00:52:34.283Z,1012.12
2022-10-28T00:52:55.331Z,1012.12
2022-10-28T00:53:16.413Z,1012.16
2022-10-28T00:53:37.447Z,1012.12
2022-10-28T00:53:58.504Z,1012.12
2022-10-28T00:54:19.564Z,1012.14
2022-10-28T00:54:40.612Z,1012.16
2022-10-28T00:55:01.667Z,1012.16
2022-10-28T00:55:22.723Z,1012.16
2022-10-28T00:55:43.781Z,1012.17
2022-10-28T00:56:04.864Z,1012.16
2022-10-28T00:56:46.918Z,1012.17
2022-10-28T00:57:07.984Z,1012.17
2022-10-28T00:57:29.042Z,1012.17
2022-10-28T00:57:50.305Z,1012.14
2022-10-28T00:58:11.461Z,1012.16
2022-10-28T00:58:32.506Z,1012.14
2022-10-28T00:58:53.559Z,1012.12
2022-10-28T00:59:14.608Z,1012.10
2022-10-28T00:59:35.673Z,1012.08
2022-10-28T00:59:56.723Z,1012.08
2022-10-28T01:00:17.770Z,1012.04
2022-10-28T01:00:38.825Z,1012.02
2022-10-28T01:00:59.882Z,1011.98
2022-10-28T01:01:21.203Z,1012.02
2022-10-28T01:01:42.428Z,1011.98
2022-10-28T01:02:03.646Z,1011.96
2022-10-28T01:02:24.782Z,1011.96
2022-10-28T01:02:45.910Z,1011.98
2022-10-28T01:03:06.963Z,1011.96
2022-10-28T01:03:28.007Z,1011.98
2022-10-28T01:03:49.056Z,1011.96
2022-10-28T01:04:10.117Z,1011.98
2022-10-28T01:04:31.177Z,1011.98
2022-10-28T01:04:52.246Z,1011.98
2022-10-28T01:05:13.288Z,1012.00
2022-10-28T01:05:34.347Z,1012.00
2022-10-28T01:05:55.406Z,1012.04
2022-10-28T01:06:16.466Z,1012.06
2022-10-28T01:06:37.500Z,1012.06
2022-10-28T01:06:58.552Z,1012.06
2022-10-28T01:07:19.608Z,1012.10
2022-10-28T01:07:40.702Z,1012.08
2022-10-28T01:08:01.840Z,1012.10
2022-10-28T01:08:22.916Z,1012.08
2022-10-28T01:08:43.965Z,1012.10
2022-10-28T01:09:05.022Z,1012.08
2022-10-28T01:09:47.117Z,1012.08
2022-10-28T01:10:08.181Z,1012.10
2022-10-28T01:10:29.228Z,1012.12
2022-10-28T01:10:50.269Z,1012.12
2022-10-28T01:11:11.320Z,1012.14
2022-10-28T01:11:32.416Z,1012.12
2022-10-28T01:11:53.472Z,1012.14
2022-10-28T01:12:14.517Z,1012.14
2022-10-28T01:12:35.573Z,1012.16
2022-10-28T01:12:56.627Z,1012.14
2022-10-28T01:13:17.683Z,1012.16
2022-10-28T01:13:38.746Z,1012.17
2022-10-28T01:13:59.785Z,1012.17
2022-10-28T01:14:20.835Z,1012.16
2022-10-28T01:14:41.891Z,1012.16
2022-10-28T01:15:02.948Z,1012.19
2022-10-28T01:15:23.987Z,1012.19
2022-10-28T01:15:45.052Z,1012.17
2022-10-28T01:16:06.118Z,1012.17
2022-10-28T01:16:27.162Z,1012.17
2022-10-28T01:16:48.218Z,1012.17
2022-10-28T01:17:09.273Z,1012.17
2022-10-28T01:17:30.336Z,1012.17
2022-10-28T01:17:51.381Z,1012.14
2022-10-28T01:18:12.441Z,1012.16
2022-10-28T01:18:33.551Z,1012.12
2022-10-28T01:18:54.602Z,1012.12
2022-10-28T01:19:15.658Z,1012.12
2022-10-28T01:19:36.708Z,1012.12
2022-10-28T01:19:57.763Z,1012.06
2022-10-28T01:20:18.818Z,1012.08
2022-10-28T01:20:41.733Z,1012.04
2022-10-28T01:21:04.346Z,1012.06
2022-10-28T01:21:25.421Z,1012.00
2022-10-28T01:21:46.447Z,1012.00
2022-10-28T01:22:07.501Z,1011.98
2022-10-28T01:22:28.575Z,1012.00
2022-10-28T01:22:49.608Z,1011.98
2022-10-28T01:23:10.673Z,1011.98
2022-10-28T01:23:31.825Z,1011.96
2022-10-28T01:23:52.869Z,1011.96
2022-10-28T01:24:13.923Z,1011.98
2022-10-28T01:24:34.976Z,1011.96
2022-10-28T01:24:56.036Z,1011.98
2022-10-28T01:25:17.079Z,1011.98
2022-10-28T01:25:38.162Z,1011.96
2022-10-28T01:25:59.207Z,1011.94
2022-10-28T01:26:20.284Z,1011.94
2022-10-28T01:26:41.338Z,1011.92
2022-10-28T01:27:02.386Z,1011.92
2022-10-28T01:27:23.447Z,1011.92
2022-10-28T01:27:44.526Z,1011.92
2022-10-28T01:28:05.549Z,1011.92
2022-10-28T01:28:26.601Z,1011.90
2022-10-28T01:28:47.781Z,1011.86
2022-10-28T01:29:08.832Z,1011.86
2022-10-28T01:29:29.886Z,1011.90
2022-10-28T01:29:50.963Z,1011.88
2022-10-28T01:30:12.009Z,1011.90
2022-10-28T01:30:33.059Z,1011.86
2022-10-28T01:30:54.109Z,1011.88
2022-10-28T01:31:15.169Z,1011.88
2022-10-28T01:31:36.213Z,1011.88
2022-10-28T01:31:57.272Z,1011.88
2022-10-28T01:32:18.320Z,1011.86
2022-10-28T01:32:39.366Z,1011.86
2022-10-28T01:33:00.443Z,1011.86
2022-10-28T01:33:21.495Z,1011.88
2022-10-28T01:33:42.561Z,1011.88
2022-10-28T01:34:03.728Z,1011.88
2022-10-28T01:34:24.803Z,1011.88
2022-10-28T01:34:45.848Z,1011.88
2022-10-28T01:35:06.903Z,1011.88
2022-10-28T01:35:28.099Z,1011.92
2022-10-28T01:35:49.165Z,1011.86
2022-10-28T01:36:10.226Z,1011.86
2022-10-28T01:36:31.397Z,1011.88
2022-10-28T01:36:52.448Z,1011.86
2022-10-28T01:37:13.472Z,1011.84
2022-10-28T01:37:34.533Z,1011.84
2022-10-28T01:37:56.057Z,1011.82
2022-10-28T01:38:17.370Z,1011.82
2022-10-28T01:38:38.439Z,1011.80
2022-10-28T01:38:59.486Z,1011.80
2022-10-28T01:39:20.563Z,1011.76
2022-10-28T01:39:41.597Z,1011.74
2022-10-28T01:40:02.651Z,1011.74
2022-10-28T01:40:23.713Z,1011.72
2022-10-28T01:40:44.765Z,1011.76
2022-10-28T01:41:06.466Z,1011.76
2022-10-28T01:41:27.499Z,1011.70
2022-10-28T01:41:48.558Z,1011.72
2022-10-28T01:42:09.639Z,1011.70
2022-10-28T01:42:30.686Z,1011.72
2022-10-28T01:42:51.735Z,1011.72
2022-10-28T01:43:12.787Z,1011.70
2022-10-28T01:43:33.857Z,1011.70
2022-10-28T01:43:54.897Z,1011.70
2022-10-28T01:44:15.948Z,1011.69
2022-10-28T01:44:37.031Z,1011.69
2022-10-28T01:44:58.099Z,1011.67
2022-10-28T01:45:19.187Z,1011.72
2022-10-28T01:45:40.223Z,1011.69
2022-10-28T01:46:01.275Z,1011.70
2022-10-28T01:46:22.321Z,1011.80
2022-10-28T01:46:43.382Z,1011.74
2022-10-28T01:47:04.425Z,1011.74
2022-10-28T01:47:25.482Z,1011.74
2022-10-28T01:47:46.544Z,1011.74
2022-10-28T01:48:07.583Z,1011.74
2022-10-28T01:48:28.669Z,1011.72
2022-10-28T01:48:49.693Z,1011.74
2022-10-28T01:49:10.730Z,1011.70
2022-10-28T01:49:31.796Z,1011.72
2022-10-28T01:49:52.857Z,1011.70
2022-10-28T01:50:13.905Z,1011.69
2022-10-28T01:50:34.979Z,1011.69
2022-10-28T01:50:56.036Z,1011.69
2022-10-28T01:51:17.089Z,1011.74
2022-10-28T01:51:38.159Z,1011.76
2022-10-28T01:51:59.210Z,1011.80
2022-10-28T01:52:20.249Z,1011.82
2022-10-28T01:52:41.290Z,1011.84
2022-10-28T01:53:02.338Z,1011.84
2022-10-28T01:53:23.399Z,1011.86
2022-10-28T01:53:44.447Z,1011.86
2022-10-28T01:54:05.506Z,1011.86
2022-10-28T01:54:26.561Z,1011.84
2022-10-28T01:54:47.604Z,1011.84
2022-10-28T01:55:08.793Z,1011.86
2022-10-28T01:55:29.827Z,1011.86
2022-10-28T01:55:50.878Z,1011.88
2022-10-28T01:56:11.935Z,1011.92
2022-10-28T01:56:32.994Z,1011.86
2022-10-28T01:56:54.036Z,1011.82
2022-10-28T01:57:15.107Z,1011.88
2022-10-28T01:57:36.151Z,1011.86
2022-10-28T01:57:57.206Z,1011.86
2022-10-28T01:58:18.251Z,1011.88
2022-10-28T01:58:39.308Z,1011.90
2022-10-28T01:59:00.353Z,1011.92
2022-10-28T01:59:21.460Z,1011.94
2022-10-28T01:59:42.493Z,1011.98
2022-10-28T02:00:03.556Z,1011.98
2022-10-28T02:00:24.687Z,1012.00
2022-10-28T02:00:45.790Z,1011.98
2022-10-28T02:01:06.964Z,1012.00
2022-10-28T02:01:28.269Z,1011.98
2022-10-28T02:01:49.521Z,1011.96
2022-10-28T02:02:10.623Z,1011.96
2022-10-28T02:02:31.671Z,1011.94
2022-10-28T02:02:53.032Z,1011.98
2022-10-28T02:03:14.130Z,1011.94
2022-10-28T02:03:35.187Z,1011.96
2022-10-28T02:03:56.243Z,1011.90
2022-10-28T02:04:17.293Z,1011.90
2022-10-28T02:04:38.344Z,1011.90
2022-10-28T02:04:59.396Z,1011.88
2022-10-28T02:05:20.490Z,1011.88
2022-10-28T02:05:41.531Z,1011.90
2022-10-28T02:06:02.583Z,1011.90
2022-10-28T02:06:23.665Z,1011.92
2022-10-28T02:06:44.774Z,1011.92
2022-10-28T02:07:05.801Z,1011.94
2022-10-28T02:07:26.856Z,1011.94
2022-10-28T02:07:47.907Z,1011.96
2022-10-28T02:08:08.976Z,1011.98
2022-10-28T02:08:30.017Z,1012.00
2022-10-28T02:08:51.066Z,1012.00
2022-10-28T02:09:12.122Z,1012.00
2022-10-28T02:09:33.169Z,1012.00
2022-10-28T02:09:54.216Z,1012.02
2022-10-28T02:10:15.280Z,1012.00
2022-10-28T02:10:36.439Z,1012.00
2022-10-28T02:10:57.489Z,1012.02
2022-10-28T02:11:18.546Z,1012.00
2022-10-28T02:11:39.608Z,1012.00
2022-10-28T02:12:00.680Z,1012.00
2022-10-28T02:12:21.711Z,1012.00
2022-10-28T02:12:42.771Z,1011.98
2022-10-28T02:13:03.823Z,1011.96
2022-10-28T02:13:24.879Z,1011.96
2022-10-28T02:13:45.921Z,1011.98
2022-10-28T02:14:06.978Z,1011.98
2022-10-28T02:14:28.037Z,1011.98
2022-10-28T02:14:49.079Z,1011.94
2022-10-28T02:15:10.141Z,1011.92
2022-10-28T02:15:31.190Z,1011.92
2022-10-28T02:15:52.416Z,1011.88
2022-10-28T02:16:13.471Z,1011.90
2022-10-28T02:16:34.513Z,1011.86
2022-10-28T02:16:55.569Z,1011.86
2022-10-28T02:17:16.619Z,1011.84
2022-10-28T02:17:37.748Z,1011.82
2022-10-28T02:17:58.797Z,1011.80
2022-10-28T02:18:19.867Z,1011.84
2022-10-28T02:18:40.923Z,1011.78
2022-10-28T02:19:01.973Z,1011.80
2022-10-28T02:19:23.037Z,1011.78
2022-10-28T02:19:44.098Z,1011.80
2022-10-28T02:20:05.159Z,1011.78
2022-10-28T02:20:26.222Z,1011.78
2022-10-28T02:20:47.273Z,1011.76
2022-10-28T02:21:08.355Z,1011.76
2022-10-28T02:21:29.422Z,1011.82
2022-10-28T02:21:50.483Z,1011.78
2022-10-28T02:22:11.522Z,1011.76
2022-10-28T02:22:32.582Z,1011.78
2022-10-28T02:22:53.630Z,1011.76
2022-10-28T02:23:14.683Z,1011.76
2022-10-28T02:23:35.742Z,1011.78
2022-10-28T02:23:56.792Z,1011.74
2022-10-28T02:24:17.859Z,1011.76
2022-10-28T02:24:38.910Z,1011.72
2022-10-28T02:24:59.957Z,1011.76
2022-10-28T02:25:21.043Z,1011.72
2022-10-28T02:25:42.087Z,1011.76
2022-10-28T02:26:03.130Z,1011.72
2022-10-28T02:26:24.311Z,1011.72
2022-10-28T02:26:45.360Z,1011.72
2022-10-28T02:27:06.413Z,1011.70
2022-10-28T02:27:27.465Z,1011.70
2022-10-28T02:27:48.523Z,1011.72
2022-10-28T02:28:30.601Z,1011.70
2022-10-28T02:28:51.644Z,1011.72
2022-10-28T02:29:12.709Z,1011.70
2022-10-28T02:29:33.740Z,1011.74
2022-10-28T02:29:54.838Z,1011.72
2022-10-28T02:30:15.881Z,1011.72
2022-10-28T02:30:36.950Z,1011.72
2022-10-28T02:30:57.986Z,1011.72
2022-10-28T02:31:19.035Z,1011.72
2022-10-28T02:31:40.211Z,1011.72
2022-10-28T02:32:01.277Z,1011.72
2022-10-28T02:32:22.320Z,1011.70
2022-10-28T02:32:43.368Z,1011.70
2022-10-28T02:33:04.421Z,1011.70
2022-10-28T02:33:25.486Z,1011.70
2022-10-28T02:33:46.535Z,1011.69
2022-10-28T02:34:07.592Z,1011.69
2022-10-28T02:34:28.634Z,1011.69
2022-10-28T02:34:49.701Z,1011.69
2022-10-28T02:35:10.741Z,1011.69
2022-10-28T02:35:31.784Z,1011.67
2022-10-28T02:35:52.847Z,1011.67
2022-10-28T02:36:13.904Z,1011.69
2022-10-28T02:36:34.961Z,1011.65
2022-10-28T02:36:56.037Z,1011.65
2022-10-28T02:37:17.106Z,1011.67
2022-10-28T02:37:38.144Z,1011.65
2022-10-28T02:37:59.202Z,1011.67
2022-10-28T02:38:20.278Z,1011.65
2022-10-28T02:38:41.314Z,1011.65
2022-10-28T02:39:02.369Z,1011.63
2022-10-28T02:39:23.448Z,1011.63
2022-10-28T02:39:44.505Z,1011.65
2022-10-28T02:40:05.547Z,1011.63
2022-10-28T02:40:26.607Z,1011.63
2022-10-28T02:40:47.736Z,1011.63
2022-10-28T02:41:08.781Z,1011.61
2022-10-28T02:41:29.852Z,1011.59
2022-10-28T02:41:50.904Z,1011.61
2022-10-28T02:42:12.070Z,1011.63
2022-10-28T02:42:33.136Z,1011.61
2022-10-28T02:42:54.387Z,1011.61
2022-10-28T02:43:15.689Z,1011.63
2022-10-28T02:43:36.739Z,1011.61
2022-10-28T02:43:57.797Z,1011.63
2022-10-28T02:44:18.845Z,1011.63
2022-10-28T02:44:39.904Z,1011.63
2022-10-28T02:45:00.948Z,1011.63
2022-10-28T02:45:22.063Z,1011.63
2022-10-28T02:45:43.105Z,1011.65
2022-10-28T02:46:04.155Z,1011.69
2022-10-28T02:46:25.200Z,1011.70
2022-10-28T02:46:46.249Z,1011.72
2022-10-28T02:47:07.432Z,1011.72
2022-10-28T02:47:28.486Z,1011.70
2022-10-28T02:47:49.538Z,1011.69
2022-10-28T02:48:10.596Z,1011.67
2022-10-28T02:48:31.650Z,1011.65
2022-10-28T02:48:52.699Z,1011.63
2022-10-28T02:49:13.764Z,1011.67
2022-10-28T02:49:34.801Z,1011.61
2022-10-28T02:49:55.874Z,1011.61
2022-10-28T02:50:16.912Z,1011.59
2022-10-28T02:50:37.962Z,1011.59
2022-10-28T02:50:59.016Z,1011.59
2022-10-28T02:51:20.073Z,1011.59
2022-10-28T02:51:41.124Z,1011.59
2022-10-28T02:52:02.188Z,1011.61
2022-10-28T02:52:23.342Z,1011.57
2022-10-28T02:52:44.403Z,1011.61
2022-10-28T02:53:05.452Z,1011.61
2022-10-28T02:53:47.536Z,1011.57
2022-10-28T02:54:08.601Z,1011.55
2022-10-28T02:54:29.650Z,1011.55
2022-10-28T02:54:50.699Z,1011.53
2022-10-28T02:55:11.755Z,1011.51
2022-10-28T02:55:32.798Z,1011.51
2022-10-28T02:55:53.908Z,1011.53
2022-10-28T02:56:14.975Z,1011.53
2022-10-28T02:56:36.032Z,1011.51
2022-10-28T02:56:57.099Z,1011.51
2022-10-28T02:57:18.285Z,1011.53
2022-10-28T02:57:39.331Z,1011.51
2022-10-28T02:58:00.377Z,1011.51
2022-10-28T02:58:21.428Z,1011.51
2022-10-28T02:58:42.484Z,1011.53
2022-10-28T02:59:03.534Z,1011.55
2022-10-28T02:59:24.588Z,1011.57
2022-10-28T02:59:45.648Z,1011.59
2022-10-28T03:00:06.690Z,1011.59
2022-10-28T03:00:27.775Z,1011.61
2022-10-28T03:00:48.881Z,1011.61
2022-10-28T03:01:10.067Z,1011.59
2022-10-28T03:01:31.313Z,1011.59
2022-10-28T03:01:52.488Z,1011.57
2022-10-28T03:02:13.651Z,1011.55
2022-10-28T03:02:34.687Z,1011.53
2022-10-28T03:02:55.753Z,1011.51
2022-10-28T03:03:16.800Z,1011.51
2022-10-28T03:03:37.852Z,1011.53
2022-10-28T03:03:58.896Z,1011.53
2022-10-28T03:04:19.944Z,1011.53
2022-10-28T03:04:40.994Z,1011.49
2022-10-28T03:05:02.050Z,1011.45
2022-10-28T03:05:23.120Z,1011.45
2022-10-28T03:05:44.170Z,1011.47
2022-10-28T03:06:05.225Z,1011.43
2022-10-28T03:06:47.293Z,1011.39
2022-10-28T03:07:08.358Z,1011.41
2022-10-28T03:07:29.417Z,1011.45
2022-10-28T03:07:50.702Z,1011.47
2022-10-28T03:08:11.887Z,1011.55
2022-10-28T03:08:32.946Z,1011.59
2022-10-28T03:08:53.990Z,1011.63
2022-10-28T03:09:15.039Z,1011.67
2022-10-28T03:09:36.088Z,1011.63
2022-10-28T03:09:57.146Z,1011.59
2022-10-28T03:10:18.203Z,1011.59
2022-10-28T03:10:39.273Z,1011.53
2022-10-28T03:11:00.333Z,1011.51
2022-10-28T03:11:21.387Z,1011.45
2022-10-28T03:11:42.456Z,1011.43
2022-10-28T03:12:03.486Z,1011.39
2022-10-28T03:12:24.556Z,1011.37
2022-10-28T03:12:45.600Z,1011.35
2022-10-28T03:13:06.647Z,1011.31
2022-10-28T03:13:27.698Z,1011.27
2022-10-28T03:13:48.767Z,1011.25
2022-10-28T03:14:11.966Z,1011.23
2022-10-28T03:14:35.633Z,1011.23
2022-10-28T03:14:56.682Z,1011.22
2022-10-28T03:15:17.730Z,1011.20
2022-10-28T03:15:38.777Z,1011.20
2022-10-28T03:15:59.859Z,1011.20
2022-10-28T03:16:20.912Z,1011.22
2022-10-28T03:16:41.976Z,1011.22
2022-10-28T03:17:03.030Z,1011.25
2022-10-28T03:17:24.074Z,1011.25
2022-10-28T03:17:45.138Z,1011.29
2022-10-28T03:18:06.199Z,1011.29
2022-10-28T03:18:27.267Z,1011.29
2022-10-28T03:18:48.310Z,1011.29
2022-10-28T03:19:30.355Z,1011.29
2022-10-28T03:19:51.410Z,1011.29
2022-10-28T03:20:12.457Z,1011.31
2022-10-28T03:20:33.521Z,1011.27
2022-10-28T03:20:58.052Z,1011.29
2022-10-28T03:21:20.129Z,1011.27
2022-10-28T03:21:41.189Z,1011.29
2022-10-28T03:22:02.238Z,1011.29
2022-10-28T03:22:23.310Z,1011.29
2022-10-28T03:22:44.380Z,1011.29
2022-10-28T03:23:05.424Z,1011.29
2022-10-28T03:23:26.453Z,1011.29
2022-10-28T03:23:47.504Z,1011.31
2022-10-28T03:24:08.567Z,1011.31
2022-10-28T03:24:29.617Z,1011.31
2022-10-28T03:24:50.668Z,1011.31
2022-10-28T03:25:11.717Z,1011.31
2022-10-28T03:25:32.763Z,1011.37
2022-10-28T03:25:53.823Z,1011.33
2022-10-28T03:26:14.901Z,1011.37
2022-10-28T03:26:35.964Z,1011.37
2022-10-28T03:26:57.015Z,1011.37
2022-10-28T03:27:18.061Z,1011.35
2022-10-28T03:27:39.237Z,1011.37
2022-10-28T03:28:00.294Z,1011.37
2022-10-28T03:28:21.338Z,1011.35
2022-10-28T03:28:42.388Z,1011.37
2022-10-28T03:29:03.471Z,1011.37
2022-10-28T03:29:24.501Z,1011.39
2022-10-28T03:29:46.161Z,1011.37
2022-10-28T03:30:07.317Z,1011.37
2022-10-28T03:30:28.374Z,1011.37
2022-10-28T03:30:49.425Z,1011.35
2022-10-28T03:31:10.491Z,1011.37
2022-10-28T03:31:31.552Z,1011.35
2022-10-28T03:31:52.585Z,1011.37
2022-10-28T03:32:13.719Z,1011.37
2022-10-28T03:32:34.835Z,1011.35
2022-10-28T03:32:56.182Z,1011.33
2022-10-28T03:33:17.507Z,1011.31
2022-10-28T03:33:38.551Z,1011.29
2022-10-28T03:33:59.597Z,1011.29
2022-10-28T03:34:20.650Z,1011.25
2022-10-28T03:34:41.712Z,1011.25
2022-10-28T03:35:02.758Z,1011.25
2022-10-28T03:35:23.829Z,1011.23
2022-10-28T03:35:44.884Z,1011.20
2022-10-28T03:36:05.938Z,1011.22
2022-10-28T03:36:26.993Z,1011.18
2022-10-28T03:36:48.064Z,1011.20
2022-10-28T03:37:09.126Z,1011.18
2022-10-28T03:37:30.184Z,1011.20
2022-10-28T03:37:51.231Z,1011.22
2022-10-28T03:38:12.292Z,1011.23
2022-10-28T03:38:33.331Z,1011.23
2022-10-28T03:38:54.391Z,1011.23
2022-10-28T03:39:15.442Z,1011.23
2022-10-28T03:39:36.493Z,1011.22
2022-10-28T03:39:57.545Z,1011.22
2022-10-28T03:40:18.612Z,1011.20
2022-10-28T03:40:39.661Z,1011.22
2022-10-28T03:41:00.707Z,1011.18
2022-10-28T03:41:21.778Z,1011.20
2022-10-28T03:41:42.814Z,1011.20
2022-10-28T03:42:03.869Z,1011.18
2022-10-28T03:42:24.916Z,1011.18
2022-10-28T03:42:46.011Z,1011.20
2022-10-28T03:43:07.074Z,1011.18
2022-10-28T03:43:28.105Z,1011.20
2022-10-28T03:43:49.156Z,1011.22
2022-10-28T03:44:10.241Z,1011.22
2022-10-28T03:44:31.310Z,1011.22
2022-10-28T03:44:52.373Z,1011.22
2022-10-28T03:45:13.425Z,1011.22
2022-10-28T03:45:34.483Z,1011.25
2022-10-28T03:45:55.534Z,1011.23
2022-10-28T03:46:16.591Z,1011.23
2022-10-28T03:46:37.692Z,1011.22
2022-10-28T03:46:58.765Z,1011.23
2022-10-28T03:47:19.790Z,1011.25
2022-10-28T03:47:40.866Z,1011.25
2022-10-28T03:48:01.948Z,1011.27
2022-10-28T03:48:22.994Z,1011.29
2022-10-28T03:48:44.045Z,1011.31
2022-10-28T03:49:05.134Z,1011.31
2022-10-28T03:49:26.192Z,1011.31
2022-10-28T03:49:47.250Z,1011.33
2022-10-28T03:50:08.301Z,1011.37
2022-10-28T03:50:29.360Z,1011.39
2022-10-28T03:50:50.402Z,1011.41
2022-10-28T03:51:11.459Z,1011.43
2022-10-28T03:51:32.501Z,1011.45
2022-10-28T03:51:53.562Z,1011.47
2022-10-28T03:52:14.612Z,1011.49
2022-10-28T03:52:35.682Z,1011.47
2022-10-28T03:52:56.825Z,1011.49
2022-10-28T03:53:17.882Z,1011.49
2022-10-28T03:53:38.938Z,1011.53
2022-10-28T03:53:59.981Z,1011.51
2022-10-28T03:54:21.041Z,1011.55
2022-10-28T03:54:42.087Z,1011.55
2022-10-28T03:55:03.141Z,1011.51
2022-10-28T03:55:24.214Z,1011.55
2022-10-28T03:55:45.268Z,1011.57
2022-10-28T03:56:06.329Z,1011.57
2022-10-28T03:56:27.386Z,1011.59
2022-10-28T03:56:48.429Z,1011.59
2022-10-28T03:57:09.497Z,1011.61
2022-10-28T03:57:30.529Z,1011.61
2022-10-28T03:57:52.071Z,1011.65
2022-10-28T03:58:13.216Z,1011.67
2022-10-28T03:58:37.414Z,1011.67
2022-10-28T03:59:01.233Z,1011.69
2022-10-28T03:59:22.304Z,1011.70
2022-10-28T03:59:43.343Z,1011.72
2022-10-28T04:00:04.394Z,1011.72
2022-10-28T04:00:25.453Z,1011.74
2022-10-28T04:00:46.503Z,1011.76
2022-10-28T04:01:07.681Z,1011.80
2022-10-28T04:01:28.893Z,1011.82
2022-10-28T04:01:50.141Z,1011.86
2022-10-28T04:02:11.350Z,1011.86
2022-10-28T04:02:32.535Z,1011.94
2022-10-28T04:02:53.895Z,1011.94
2022-10-28T04:03:15.062Z,1011.98
2022-10-28T04:03:36.113Z,1012.00
2022-10-28T04:03:57.171Z,1012.00
2022-10-28T04:04:18.220Z,1011.98
2022-10-28T04:04:39.274Z,1011.98
2022-10-28T04:05:00.330Z,1011.96
2022-10-28T04:05:21.477Z,1011.94
2022-10-28T04:05:42.502Z,1011.94
2022-10-28T04:06:03.556Z,1011.88
2022-10-28T04:06:24.612Z,1011.88
2022-10-28T04:06:45.674Z,1011.88
2022-10-28T04:07:06.729Z,1011.86
2022-10-28T04:07:27.811Z,1011.84
2022-10-28T04:07:48.894Z,1011.86
2022-10-28T04:08:09.948Z,1011.88
2022-10-28T04:08:31.010Z,1011.86
2022-10-28T04:08:52.054Z,1011.84
2022-10-28T04:09:13.103Z,1011.80
2022-10-28T04:09:34.153Z,1011.80
2022-10-28T04:09:55.211Z,1011.78
2022-10-28T04:10:16.263Z,1011.74
2022-10-28T04:10:37.315Z,1011.70
2022-10-28T04:10:58.363Z,1011.69
2022-10-28T04:11:19.406Z,1011.65
2022-10-28T04:11:40.457Z,1011.61
2022-10-28T04:12:01.547Z,1011.63
2022-10-28T04:12:22.594Z,1011.63
2022-10-28T04:12:43.648Z,1011.59
2022-10-28T04:13:04.819Z,1011.57
2022-10-28T04:13:25.873Z,1011.55
2022-10-28T04:13:46.959Z,1011.53
2022-10-28T04:14:07.992Z,1011.51
2022-10-28T04:14:29.048Z,1011.49
2022-10-28T04:14:50.122Z,1011.47
2022-10-28T04:15:11.181Z,1011.47
2022-10-28T04:15:32.244Z,1011.47
2022-10-28T04:15:53.301Z,1011.47
2022-10-28T04:16:14.351Z,1011.49
2022-10-28T04:16:35.400Z,1011.49
2022-10-28T04:16:56.466Z,1011.49
2022-10-28T04:17:17.517Z,1011.49
2022-10-28T04:17:38.551Z,1011.47